Time;durP1;ratioP1;P1;durP2;ratioP2;P2;SDS_P1;SDS_P2;PMS_P1;PMS_P2;Temp;Humidity;BMP_temperature;BMP_pressure;BME280_temperature;BME280_humidity;BME280_pressure;Samples;Min_cycle;Max_cycle;Signal;HPM_P1;HPM_P2
2021/12/21 00:00:49;;;;;;;2.20;1.60;;;-1.00;99.90;;;;;;4924762;29;20706;-80
2021/12/21 00:03:15;;;;;;;3.53;1.47;;;-1.00;99.90;;;;;;4896274;29;20388;-80
2021/12/21 00:05:41;;;;;;;5.33;1.70;;;-0.90;99.90;;;;;;4925998;29;20098;-80
2021/12/21 00:08:09;;;;;;;3.97;1.50;;;-0.90;99.90;;;;;;4910185;29;20654;-80
2021/12/21 00:10:35;;;;;;;3.47;1.43;;;-0.90;99.90;;;;;;4925025;29;20386;-79
2021/12/21 00:13:06;;;;;;;3.30;1.63;;;-0.90;99.90;;;;;;4917017;29;20407;-79
2021/12/21 00:23:30;;;;;;;4.50;1.90;;;-1.10;99.90;;;;;;4927793;29;20379;-78
2021/12/21 00:26:08;;;;;;;5.83;2.07;;;-1.10;99.90;;;;;;4913449;29;20083;-80
2021/12/21 00:28:42;;;;;;;3.97;1.70;;;-1.10;99.90;;;;;;4930479;29;20298;-80
2021/12/21 00:31:07;;;;;;;2.90;1.60;;;-1.10;99.90;;;;;;4920570;29;20290;-80
2021/12/21 00:33:33;;;;;;;4.00;1.50;;;-1.20;99.90;;;;;;4903269;29;20856;-80
2021/12/21 00:35:59;;;;;;;5.07;1.87;;;-1.10;99.90;;;;;;4912909;29;20040;-80
2021/12/21 00:38:25;;;;;;;4.07;1.80;;;-1.10;99.90;;;;;;4891055;29;20048;-80
2021/12/21 00:40:51;;;;;;;10.07;2.20;;;-1.20;99.90;;;;;;4925397;29;20299;-80
2021/12/21 00:43:17;;;;;;;4.67;1.40;;;-1.20;99.90;;;;;;4904279;29;20496;-80
2021/12/21 00:45:43;;;;;;;4.40;1.70;;;-1.20;99.90;;;;;;4902980;29;20048;-80
2021/12/21 00:48:08;;;;;;;3.87;1.77;;;-1.20;99.90;;;;;;4897803;29;20280;-80
2021/12/21 00:50:34;;;;;;;3.47;1.60;;;-1.20;99.90;;;;;;4922174;29;20036;-80
2021/12/21 00:53:00;;;;;;;3.53;1.50;;;-1.20;99.90;;;;;;4895120;29;20044;-80
2021/12/21 00:55:25;;;;;;;4.87;1.70;;;-1.20;99.90;;;;;;4897119;29;20036;-80
2021/12/21 00:57:51;;;;;;;6.47;1.73;;;-1.20;99.90;;;;;;4904620;29;20456;-80
2021/12/21 01:00:21;;;;;;;7.10;1.70;;;-1.20;99.90;;;;;;4885165;29;20095;-80
2021/12/21 01:02:47;;;;;;;3.40;1.43;;;-1.30;99.90;;;;;;4923400;29;20055;-80
2021/12/21 01:05:23;;;;;;;3.63;1.53;;;-1.30;99.90;;;;;;4912868;29;20307;-81
2021/12/21 01:07:52;;;;;;;4.83;1.50;;;-1.30;99.90;;;;;;4898711;29;20295;-80
2021/12/21 01:13:16;;;;;;;6.38;1.52;;;-1.30;99.90;;;;;;4943167;29;20355;-81
2021/12/21 01:18:09;;;;;;;3.13;1.20;;;-1.30;99.90;;;;;;4941326;29;20295;-80
2021/12/21 01:20:43;;;;;;;4.33;1.53;;;-1.30;99.90;;;;;;4887786;29;20044;-80
2021/12/21 01:26:03;;;;;;;3.97;1.27;;;-1.30;99.90;;;;;;4944129;29;20303;-81
2021/12/21 01:31:19;;;;;;;6.50;1.90;;;-1.30;99.90;;;;;;4923986;29;20621;-80
2021/12/21 01:34:12;;;;;;;4.20;1.60;;;-1.30;99.90;;;;;;4925712;29;20427;-81
2021/12/21 01:37:06;;;;;;;7.83;1.77;;;-1.30;99.90;;;;;;4906407;29;20040;-80
2021/12/21 01:50:30;;;;;;;2.93;1.80;;;-1.40;99.90;;;;;;4853012;29;20293;-81
2021/12/21 01:52:55;;;;;;;3.73;1.40;;;-1.40;99.90;;;;;;4918582;29;20326;-80
2021/12/21 01:55:21;;;;;;;5.10;1.50;;;-1.40;99.90;;;;;;4905554;29;20043;-81
2021/12/21 01:57:47;;;;;;;5.70;1.40;;;-1.40;99.90;;;;;;4874580;29;20118;-81
2021/12/21 02:00:13;;;;;;;4.73;1.67;;;-1.50;99.90;;;;;;4915830;29;20055;-80
2021/12/21 02:02:39;;;;;;;2.97;1.40;;;-1.40;99.90;;;;;;4931823;29;20180;-81
2021/12/21 02:05:05;;;;;;;4.63;1.53;;;-1.50;99.90;;;;;;4926740;29;20758;-80
2021/12/21 02:07:31;;;;;;;5.90;1.60;;;-1.40;99.90;;;;;;4918023;29;20388;-80
2021/12/21 02:09:57;;;;;;;6.73;1.80;;;-1.40;99.90;;;;;;4899718;29;20303;-81
2021/12/21 02:12:23;;;;;;;5.93;1.50;;;-1.50;99.90;;;;;;4895846;29;20196;-80
2021/12/21 02:14:59;;;;;;;6.10;1.63;;;-1.50;99.90;;;;;;4895057;29;20135;-81
2021/12/21 02:20:50;;;;;;;5.83;1.77;;;-1.60;99.90;;;;;;4926564;29;20729;-81
2021/12/21 02:23:07;;;;;;;4.10;1.60;;;-1.60;99.90;;;;;;4915246;29;20303;-81
2021/12/21 02:25:52;;;;;;;4.13;1.70;;;-1.60;99.90;;;;;;4929419;29;20312;-81
2021/12/21 02:30:50;;;;;;;7.00;2.20;;;-1.60;99.90;;;;;;4938464;29;20291;-81
2021/12/21 02:33:16;;;;;;;4.77;1.80;;;-1.50;99.90;;;;;;4905158;29;20040;-81
2021/12/21 02:35:43;;;;;;;5.53;1.80;;;-1.60;99.90;;;;;;4914951;29;20782;-80
2021/12/21 02:38:10;;;;;;;3.83;1.70;;;-1.60;99.90;;;;;;4930069;29;20858;-81
2021/12/21 02:40:36;;;;;;;5.63;1.70;;;-1.60;99.90;;;;;;4914928;29;20507;-80
2021/12/21 02:43:04;;;;;;;6.23;1.47;;;-1.60;99.90;;;;;;4907856;29;20882;-80
2021/12/21 02:45:31;;;;;;;4.43;1.70;;;-1.60;99.90;;;;;;4913089;29;20312;-80
2021/12/21 02:47:56;;;;;;;3.60;1.37;;;-1.70;99.90;;;;;;4891240;29;20760;-80
2021/12/21 02:50:23;;;;;;;3.43;1.40;;;-1.60;99.90;;;;;;4931329;29;20400;-80
2021/12/21 02:52:50;;;;;;;4.90;1.60;;;-1.60;99.90;;;;;;4926186;29;20031;-81
2021/12/21 02:55:17;;;;;;;5.43;1.70;;;-1.60;99.90;;;;;;4912249;29;20291;-80
2021/12/21 02:57:42;;;;;;;4.50;1.63;;;-1.60;99.90;;;;;;4896223;29;20288;-81
2021/12/21 03:00:12;;;;;;;7.87;1.60;;;-1.60;99.90;;;;;;4876133;29;20657;-80
2021/12/21 03:02:38;;;;;;;5.83;1.60;;;-1.70;99.90;;;;;;4922318;29;20196;-78
2021/12/21 03:05:04;;;;;;;6.23;1.90;;;-1.70;99.90;;;;;;4917761;29;20303;-80
2021/12/21 03:10:08;;;;;;;4.97;1.48;;;-1.70;99.90;;;;;;4907044;29;20312;-81
2021/12/21 03:15:27;;;;;;;5.40;1.73;;;-1.70;99.90;;;;;;4878755;29;20055;-80
2021/12/21 03:17:54;;;;;;;7.60;1.93;;;-1.70;99.90;;;;;;4909510;29;20313;-81
2021/12/21 03:20:21;;;;;;;4.40;1.57;;;-1.70;99.90;;;;;;4923898;29;20298;-81
2021/12/21 03:22:47;;;;;;;2.50;1.40;;;-1.70;99.90;;;;;;4899183;29;20649;-80
2021/12/21 03:25:14;;;;;;;4.10;1.73;;;-1.70;99.90;;;;;;4906477;29;20301;-80
2021/12/21 03:27:39;;;;;;;6.23;1.80;;;-1.70;99.90;;;;;;4909544;29;20280;-81
2021/12/21 03:30:10;;;;;;;5.80;1.70;;;-1.70;99.90;;;;;;4904745;29;20371;-81
2021/12/21 03:32:35;;;;;;;3.10;1.60;;;-1.70;99.90;;;;;;4915362;29;20043;-81
2021/12/21 03:35:02;;;;;;;5.23;1.87;;;-1.70;99.90;;;;;;4921658;29;20688;-81
2021/12/21 03:37:28;;;;;;;6.27;1.77;;;-1.70;99.90;;;;;;4904343;29;20518;-81
2021/12/21 03:39:55;;;;;;;6.43;2.10;;;-1.70;99.90;;;;;;4905811;29;20300;-81
2021/12/21 03:42:23;;;;;;;6.17;1.90;;;-1.70;99.90;;;;;;4913901;29;20135;-80
2021/12/21 03:44:49;;;;;;;4.40;1.33;;;-1.70;99.90;;;;;;4931864;29;20280;-81
2021/12/21 03:47:16;;;;;;;4.77;1.50;;;-1.70;99.90;;;;;;4916175;29;20362;-81
2021/12/21 03:52:15;;;;;;;5.37;1.60;;;-1.70;99.90;;;;;;4948141;29;20319;-80
2021/12/21 03:54:47;;;;;;;5.77;1.50;;;-1.80;99.90;;;;;;4928373;29;20295;-81
2021/12/21 03:57:13;;;;;;;3.83;1.40;;;-1.80;99.90;;;;;;4917199;29;20284;-81
2021/12/21 03:59:42;;;;;;;4.10;1.50;;;-1.80;99.90;;;;;;4929931;29;20162;-81
2021/12/21 04:02:08;;;;;;;7.10;2.03;;;-1.80;99.90;;;;;;4888574;29;20280;-81
2021/12/21 04:04:34;;;;;;;6.07;2.37;;;-1.80;99.90;;;;;;4914396;29;20275;-80
2021/12/21 04:07:00;;;;;;;5.67;1.83;;;-1.80;99.90;;;;;;4916889;29;20291;-81
2021/12/21 04:09:26;;;;;;;5.47;1.87;;;-1.80;99.90;;;;;;4907694;29;20292;-81
2021/12/21 04:11:52;;;;;;;4.77;1.70;;;-1.80;99.90;;;;;;4915804;29;20048;-80
2021/12/21 04:14:18;;;;;;;7.60;1.83;;;-1.80;99.90;;;;;;4913519;29;20091;-81
2021/12/21 04:16:44;;;;;;;3.23;1.67;;;-1.80;99.90;;;;;;4890671;29;20070;-80
2021/12/21 04:19:12;;;;;;;6.63;1.83;;;-1.80;99.90;;;;;;4913976;29;20699;-81
2021/12/21 04:21:38;;;;;;;5.47;1.87;;;-1.90;99.90;;;;;;4914703;29;20047;-81
2021/12/21 04:24:04;;;;;;;5.63;2.20;;;-1.90;99.90;;;;;;4914105;29;20429;-81
2021/12/21 04:26:30;;;;;;;4.23;1.93;;;-2.00;99.90;;;;;;4900693;29;20302;-81
2021/12/21 04:28:55;;;;;;;4.33;1.80;;;-1.90;99.90;;;;;;4914337;29;20048;-81
2021/12/21 04:31:21;;;;;;;5.03;1.63;;;-1.90;99.90;;;;;;4907844;29;20567;-81
2021/12/21 04:33:47;;;;;;;3.60;1.40;;;-1.90;99.90;;;;;;4896990;29;20432;-81
2021/12/21 04:36:14;;;;;;;4.20;1.77;;;-1.90;99.90;;;;;;4909340;29;20054;-81
2021/12/21 04:38:44;;;;;;;3.20;1.40;;;-1.90;99.90;;;;;;4929021;29;20051;-81
2021/12/21 04:41:15;;;;;;;5.13;1.60;;;-1.90;99.90;;;;;;4906438;29;20292;-81
2021/12/21 04:43:42;;;;;;;4.60;1.63;;;-1.90;99.90;;;;;;4915663;29;20806;-81
2021/12/21 04:46:09;;;;;;;3.97;1.43;;;-1.90;99.90;;;;;;4906860;29;20495;-81
2021/12/21 04:48:36;;;;;;;3.37;1.40;;;-1.90;99.90;;;;;;4902705;29;20322;-81
2021/12/21 04:51:02;;;;;;;5.63;1.50;;;-1.90;99.90;;;;;;4930155;29;20312;-81
2021/12/21 04:53:28;;;;;;;2.87;1.50;;;-1.90;99.90;;;;;;4901239;29;20287;-81
2021/12/21 04:55:54;;;;;;;4.23;1.60;;;-1.90;99.90;;;;;;4895386;29;20288;-81
2021/12/21 04:58:20;;;;;;;3.80;1.37;;;-1.90;99.90;;;;;;4898047;29;20068;-81
2021/12/21 05:00:46;;;;;;;4.27;1.50;;;-2.00;99.90;;;;;;4901201;29;20381;-81
2021/12/21 05:03:12;;;;;;;3.10;1.73;;;-1.90;99.90;;;;;;4889187;29;20347;-81
2021/12/21 05:05:38;;;;;;;4.53;1.80;;;-2.00;99.90;;;;;;4904390;29;20308;-81
2021/12/21 05:08:09;;;;;;;5.10;1.80;;;-2.00;99.90;;;;;;4895040;29;20040;-81
2021/12/21 05:10:44;;;;;;;4.83;1.90;;;-2.00;99.90;;;;;;4923641;29;20322;-81
2021/12/21 05:13:11;;;;;;;3.83;1.57;;;-2.00;99.90;;;;;;4934874;29;20350;-81
2021/12/21 05:15:37;;;;;;;4.07;1.60;;;-2.10;99.90;;;;;;4917214;29;20346;-81
2021/12/21 05:18:03;;;;;;;3.80;1.53;;;-2.10;99.90;;;;;;4916112;29;20356;-81
2021/12/21 05:20:29;;;;;;;6.27;1.70;;;-2.20;99.90;;;;;;4908965;29;20426;-81
2021/12/21 05:22:55;;;;;;;3.67;1.97;;;-2.20;99.90;;;;;;4919214;29;20487;-81
2021/12/21 05:25:21;;;;;;;4.67;1.40;;;-2.20;99.90;;;;;;4901898;29;20311;-81
2021/12/21 05:27:46;;;;;;;4.07;1.90;;;-2.20;99.90;;;;;;4921130;29;20040;-81
2021/12/21 05:30:13;;;;;;;4.63;1.70;;;-2.10;99.90;;;;;;4908764;29;20353;-80
2021/12/21 05:32:39;;;;;;;4.20;1.57;;;-2.20;99.90;;;;;;4932411;29;20035;-81
2021/12/21 05:35:06;;;;;;;4.77;1.40;;;-2.10;99.90;;;;;;4916566;29;20286;-81
2021/12/21 05:37:32;;;;;;;3.73;1.30;;;-2.10;99.90;;;;;;4915875;29;20710;-81
2021/12/21 05:40:09;;;;;;;3.17;1.40;;;-2.10;99.90;;;;;;4941340;29;20302;-79
2021/12/21 05:42:35;;;;;;;4.00;1.50;;;-2.10;99.90;;;;;;4932383;29;20449;-78
2021/12/21 05:45:02;;;;;;;3.37;1.77;;;-2.20;99.90;;;;;;4910751;29;20387;-81
2021/12/21 05:47:28;;;;;;;3.93;1.33;;;-2.10;99.90;;;;;;4908630;29;20050;-81
2021/12/21 05:49:53;;;;;;;4.00;1.60;;;-2.20;99.90;;;;;;4930866;29;20279;-81
2021/12/21 05:52:19;;;;;;;3.83;1.40;;;-2.20;99.90;;;;;;4936414;29;20431;-81
2021/12/21 05:54:45;;;;;;;6.43;1.57;;;-2.10;99.90;;;;;;4945342;29;20498;-81
2021/12/21 05:57:11;;;;;;;2.67;1.40;;;-2.20;99.90;;;;;;4913083;29;20079;-81
2021/12/21 05:59:36;;;;;;;3.60;1.40;;;-2.20;99.90;;;;;;4908346;29;20071;-81
2021/12/21 06:02:03;;;;;;;3.47;1.63;;;-2.20;99.90;;;;;;4907733;29;20047;-81
2021/12/21 06:04:29;;;;;;;6.77;1.57;;;-2.20;99.90;;;;;;4931564;29;20043;-81
2021/12/21 06:06:54;;;;;;;2.50;1.20;;;-2.20;99.90;;;;;;4914811;29;20362;-81
2021/12/21 06:09:20;;;;;;;1.93;1.30;;;-2.20;99.90;;;;;;4930136;29;20070;-81
2021/12/21 06:12:07;;;;;;;2.80;1.40;;;-2.20;99.90;;;;;;4927853;29;20047;-82
2021/12/21 06:25:39;;;;;;;3.67;1.60;;;-2.30;99.90;;;;;;4901325;29;20830;-82
2021/12/21 06:28:08;;;;;;;5.27;1.50;;;-2.30;99.90;;;;;;4930048;29;20825;-81
2021/12/21 06:30:35;;;;;;;6.33;1.70;;;-2.40;99.90;;;;;;4950575;29;20294;-82
2021/12/21 06:33:02;;;;;;;1.87;1.40;;;-2.30;99.90;;;;;;4932159;29;20334;-81
2021/12/21 06:35:28;;;;;;;3.33;1.57;;;-2.40;99.90;;;;;;4934527;29;20786;-81
2021/12/21 06:37:54;;;;;;;5.50;1.60;;;-2.40;99.90;;;;;;4936914;29;20358;-81
2021/12/21 06:40:21;;;;;;;5.47;1.50;;;-2.40;99.90;;;;;;4906732;29;20438;-81
2021/12/21 06:42:49;;;;;;;4.30;1.40;;;-2.30;99.90;;;;;;4924316;29;20293;-81
2021/12/21 06:45:28;;;;;;;5.20;2.10;;;-2.40;99.90;;;;;;4913569;29;21498;-81
2021/12/21 06:53:24;;;;;;;2.53;1.50;;;-2.50;99.90;;;;;;4943816;29;20391;-81
2021/12/21 06:55:50;;;;;;;5.10;1.50;;;-2.40;99.90;;;;;;4919329;29;20498;-81
2021/12/21 06:58:16;;;;;;;8.47;2.27;;;-2.40;99.90;;;;;;4943176;29;20831;-81
2021/12/21 07:00:42;;;;;;;2.70;1.50;;;-2.50;99.90;;;;;;4937611;29;20043;-82
2021/12/21 07:03:08;;;;;;;6.50;2.10;;;-2.40;99.90;;;;;;4923979;29;20035;-81
2021/12/21 07:05:34;;;;;;;4.30;1.90;;;-2.40;99.90;;;;;;4924285;29;20305;-82
2021/12/21 07:08:00;;;;;;;6.17;2.07;;;-2.40;99.90;;;;;;4912454;29;20070;-82
2021/12/21 07:10:28;;;;;;;5.67;1.60;;;-2.40;99.90;;;;;;4932309;29;20039;-82
2021/12/21 07:18:29;;;;;;;7.87;1.90;;;-2.50;99.90;;;;;;4927001;29;20294;-82
2021/12/21 07:21:04;;;;;;;3.80;1.73;;;-2.40;99.90;;;;;;4935255;29;20283;-82
2021/12/21 07:23:30;;;;;;;4.23;1.70;;;-2.40;99.90;;;;;;4910311;29;20640;-82
2021/12/21 07:25:56;;;;;;;5.93;2.00;;;-2.40;99.90;;;;;;4922328;29;20354;-81
2021/12/21 07:28:22;;;;;;;5.60;2.00;;;-2.40;99.90;;;;;;4913199;29;20678;-82
2021/12/21 07:30:49;;;;;;;3.27;2.20;;;-2.50;99.90;;;;;;4910560;29;20102;-82
2021/12/21 07:33:16;;;;;;;5.87;2.20;;;-2.60;99.90;;;;;;4917285;29;20842;-81
2021/12/21 07:35:42;;;;;;;3.73;2.20;;;-2.60;99.90;;;;;;4905268;29;20294;-82
2021/12/21 07:38:10;;;;;;;7.03;2.07;;;-2.60;99.90;;;;;;4917922;29;20291;-82
2021/12/21 07:40:36;;;;;;;22.27;3.53;;;-2.60;99.90;;;;;;4905290;29;20613;-82
2021/12/21 07:43:03;;;;;;;4.73;1.90;;;-2.60;99.90;;;;;;4907855;29;20299;-82
2021/12/21 07:45:29;;;;;;;6.73;2.13;;;-2.60;99.90;;;;;;4903523;29;20306;-79
2021/12/21 07:47:55;;;;;;;4.27;2.00;;;-2.70;99.90;;;;;;4920997;29;20290;-79
2021/12/21 07:50:21;;;;;;;6.67;2.37;;;-2.80;99.90;;;;;;4926579;29;20071;-79
2021/12/21 07:52:47;;;;;;;3.83;1.77;;;-2.80;99.90;;;;;;4904821;29;20671;-79
2021/12/21 07:55:13;;;;;;;4.00;1.80;;;-2.80;99.90;;;;;;4909625;29;20329;-79
2021/12/21 07:57:39;;;;;;;4.27;1.93;;;-2.80;99.90;;;;;;4901554;29;20423;-79
2021/12/21 08:00:08;;;;;;;4.43;2.40;;;-2.70;99.90;;;;;;4906261;29;20047;-79
2021/12/21 08:02:34;;;;;;;6.73;2.50;;;-2.70;99.90;;;;;;4887157;29;20501;-79
2021/12/21 08:05:05;;;;;;;4.50;2.23;;;-2.70;99.90;;;;;;4916157;29;20299;-79
2021/12/21 08:07:35;;;;;;;6.23;2.60;;;-2.70;99.90;;;;;;4909522;29;20287;-79
2021/12/21 08:10:16;;;;;;;4.20;2.10;;;-2.70;99.90;;;;;;4937540;29;21378;-79
2021/12/21 08:12:43;;;;;;;7.13;2.28;;;-2.60;99.90;;;;;;4895034;29;20300;-78
2021/12/21 08:15:09;;;;;;;4.10;1.83;;;-2.60;99.90;;;;;;4909442;29;20074;-79
2021/12/21 08:17:35;;;;;;;8.57;2.00;;;-2.50;99.90;;;;;;4885510;29;20292;-78
2021/12/21 08:20:00;;;;;;;6.07;2.20;;;-2.60;99.90;;;;;;4909267;29;20768;-77
2021/12/21 08:22:26;;;;;;;3.70;2.50;;;-2.60;99.90;;;;;;4904235;29;20488;-77
2021/12/21 08:24:52;;;;;;;3.60;2.30;;;-2.60;99.90;;;;;;4888453;29;20091;-79
2021/12/21 08:27:18;;;;;;;3.63;2.10;;;-2.60;99.90;;;;;;4871835;29;20099;-79
2021/12/21 08:29:43;;;;;;;10.17;2.20;;;-2.60;99.90;;;;;;4924387;29;20040;-79
2021/12/21 08:32:10;;;;;;;4.63;2.00;;;-2.50;99.90;;;;;;4901531;29;20044;-80
2021/12/21 08:34:36;;;;;;;4.00;1.83;;;-2.40;99.90;;;;;;4899173;29;20130;-79
2021/12/21 08:37:02;;;;;;;4.07;2.13;;;-2.30;99.90;;;;;;4915912;29;20292;-79
2021/12/21 08:39:36;;;;;;;4.40;2.00;;;-2.30;99.90;;;;;;4907749;29;20331;-79
2021/12/21 08:42:02;;;;;;;4.07;2.30;;;-2.40;99.90;;;;;;4907125;29;20284;-79
2021/12/21 08:44:29;;;;;;;5.93;2.00;;;-2.30;99.90;;;;;;4901783;29;20301;-79
2021/12/21 08:46:58;;;;;;;7.87;2.53;;;-2.30;99.90;;;;;;4905782;29;20048;-79
2021/12/21 08:49:25;;;;;;;4.17;2.90;;;-2.20;99.90;;;;;;4912026;29;20308;-80
2021/12/21 08:51:51;;;;;;;4.73;3.07;;;-2.20;99.90;;;;;;4910008;29;20844;-80
2021/12/21 08:54:17;;;;;;;5.50;3.27;;;-2.10;99.90;;;;;;4920258;29;20281;-79
2021/12/21 08:56:44;;;;;;;8.80;4.40;;;-2.10;99.90;;;;;;4907271;29;20039;-79
2021/12/21 08:59:10;;;;;;;12.07;4.43;;;-2.00;99.90;;;;;;4906828;29;20298;-79
2021/12/21 09:01:36;;;;;;;11.23;4.53;;;-1.90;99.90;;;;;;4908753;29;20394;-79
2021/12/21 09:04:02;;;;;;;9.20;4.87;;;-1.90;99.90;;;;;;4886761;29;20891;-80
2021/12/21 09:06:28;;;;;;;9.97;4.97;;;-1.80;99.90;;;;;;4930464;29;20482;-79
2021/12/21 09:08:54;;;;;;;10.30;5.00;;;-1.70;99.90;;;;;;4906380;29;20374;-80
2021/12/21 09:11:19;;;;;;;9.40;5.50;;;-1.70;99.90;;;;;;4899850;29;20171;-80
2021/12/21 09:13:45;;;;;;;13.33;5.67;;;-1.60;99.90;;;;;;4930204;29;20496;-79
2021/12/21 09:16:11;;;;;;;9.87;5.80;;;-1.50;99.90;;;;;;4888646;29;20052;-79
2021/12/21 09:18:37;;;;;;;15.27;6.23;;;-1.50;99.90;;;;;;4914971;29;20453;-79
2021/12/21 09:21:03;;;;;;;14.30;7.17;;;-1.40;99.90;;;;;;4908300;29;20287;-79
2021/12/21 09:23:28;;;;;;;16.73;7.27;;;-1.30;99.90;;;;;;4892758;29;20083;-79
2021/12/21 09:25:55;;;;;;;12.90;6.57;;;-1.20;99.90;;;;;;4871234;29;20047;-79
2021/12/21 09:28:21;;;;;;;10.70;7.23;;;-1.20;99.90;;;;;;4914049;29;20440;-81
2021/12/21 09:30:47;;;;;;;8.73;4.47;;;-1.10;99.90;;;;;;4920820;29;20279;-80
2021/12/21 09:33:13;;;;;;;9.20;5.00;;;-1.10;99.90;;;;;;4902971;29;20044;-80
2021/12/21 09:35:39;;;;;;;10.03;5.00;;;-1.00;99.90;;;;;;4908788;29;20040;-80
2021/12/21 09:38:05;;;;;;;10.67;5.40;;;-1.00;99.90;;;;;;4926929;29;20421;-83
2021/12/21 09:40:31;;;;;;;11.07;5.80;;;-1.00;99.90;;;;;;4915603;29;20047;-80
2021/12/21 09:42:59;;;;;;;12.67;6.37;;;-0.90;99.90;;;;;;4918771;29;20071;-80
2021/12/21 09:45:25;;;;;;;15.20;8.80;;;-0.80;99.90;;;;;;4914507;29;20338;-80
2021/12/21 09:47:51;;;;;;;11.13;8.53;;;-0.80;99.90;;;;;;4918548;29;20291;-80
2021/12/21 09:50:19;;;;;;;14.43;8.53;;;-0.70;99.90;;;;;;4892361;29;20335;-81
2021/12/21 09:52:46;;;;;;;13.00;8.33;;;-0.50;99.90;;;;;;4919005;29;20361;-80
2021/12/21 09:55:14;;;;;;;13.27;9.27;;;-0.50;99.90;;;;;;4909114;29;20357;-80
2021/12/21 09:57:40;;;;;;;13.30;8.83;;;-0.40;99.90;;;;;;4943271;29;20652;-79
2021/12/21 10:00:10;;;;;;;18.93;10.90;;;-0.30;99.90;;;;;;4932160;29;20300;-80
2021/12/21 10:02:36;;;;;;;15.90;10.53;;;-0.20;99.90;;;;;;4917349;29;20079;-80
2021/12/21 10:05:06;;;;;;;13.73;10.37;;;-0.10;99.90;;;;;;4922521;29;20374;-80
2021/12/21 10:07:33;;;;;;;16.90;9.73;;;0.00;99.90;;;;;;4954552;29;20287;-80
2021/12/21 10:10:12;;;;;;;14.40;10.47;;;0.10;99.90;;;;;;4903547;29;20800;-79
2021/12/21 10:12:41;;;;;;;16.37;10.50;;;0.20;99.90;;;;;;4906472;29;20302;-79
2021/12/21 10:15:12;;;;;;;16.53;10.50;;;0.20;99.90;;;;;;4945260;29;21028;-80
2021/12/21 10:17:52;;;;;;;17.40;10.45;;;0.30;99.90;;;;;;4925187;29;20377;-79
2021/12/21 10:20:43;;;;;;;17.43;10.13;;;0.40;99.90;;;;;;4935549;29;20160;-79
2021/12/21 10:23:31;;;;;;;16.40;10.33;;;0.50;99.90;;;;;;4932205;29;20331;-79
2021/12/21 10:26:10;;;;;;;14.17;9.73;;;0.50;99.90;;;;;;4910637;29;20362;-79
2021/12/21 10:28:40;;;;;;;13.53;9.83;;;0.60;99.90;;;;;;4937686;29;20291;-79
2021/12/21 10:31:30;;;;;;;17.17;10.60;;;0.60;99.90;;;;;;4906593;29;20284;-79
2021/12/21 10:33:57;;;;;;;14.67;9.50;;;0.70;99.90;;;;;;4936483;29;20294;-79
2021/12/21 10:36:26;;;;;;;17.97;9.33;;;0.80;99.90;;;;;;4956112;29;20309;-79
2021/12/21 10:38:56;;;;;;;19.20;9.10;;;0.80;99.90;;;;;;4938843;29;20298;-78
2021/12/21 10:41:42;;;;;;;16.27;9.73;;;0.90;99.90;;;;;;4917822;29;21226;-79
2021/12/21 10:44:18;;;;;;;13.00;8.93;;;1.00;99.90;;;;;;4942083;29;20813;-78
2021/12/21 10:46:50;;;;;;;15.67;9.37;;;1.10;99.90;;;;;;4913312;29;20810;-79
2021/12/21 10:49:18;;;;;;;14.65;8.68;;;1.10;99.90;;;;;;4942817;29;20288;-80
2021/12/21 10:52:04;;;;;;;16.27;9.47;;;1.20;99.90;;;;;;4940350;29;20382;-80
2021/12/21 10:54:36;;;;;;;19.40;9.53;;;1.30;99.90;;;;;;4924476;29;20654;-79
2021/12/21 10:57:05;;;;;;;14.80;8.63;;;1.30;99.90;;;;;;4954509;28;20293;-80
2021/12/21 10:59:37;;;;;;;14.97;10.00;;;1.40;99.90;;;;;;4905330;29;20097;-80
2021/12/21 11:02:11;;;;;;;13.90;10.17;;;1.50;99.90;;;;;;4921121;29;20291;-80
2021/12/21 11:04:43;;;;;;;14.63;9.80;;;1.50;99.90;;;;;;4915599;29;20282;-80
2021/12/21 11:10:26;;;;;;;21.33;10.68;;;1.60;99.90;;;;;;4932516;29;19978;-78
2021/12/21 11:13:18;;;;;;;22.07;13.47;;;1.60;99.90;;;;;;4936879;29;20051;-80
2021/12/21 11:15:55;;;;;;;19.05;11.52;;;1.70;99.90;;;;;;4906017;29;20291;-80
2021/12/21 11:18:23;;;;;;;15.93;10.30;;;1.70;99.90;;;;;;4911547;29;20043;-80
2021/12/21 11:20:52;;;;;;;19.00;11.30;;;1.80;99.90;;;;;;4891759;29;20291;-80
2021/12/21 11:23:23;;;;;;;15.57;10.17;;;1.80;99.90;;;;;;4923859;29;20287;-80
2021/12/21 11:25:53;;;;;;;18.03;11.27;;;1.90;99.90;;;;;;4923975;29;20825;-80
2021/12/21 11:28:29;;;;;;;17.70;10.83;;;2.00;99.90;;;;;;4923766;29;20279;-80
2021/12/21 11:30:59;;;;;;;18.13;10.87;;;2.00;99.90;;;;;;4939906;29;20040;-80
2021/12/21 11:33:26;;;;;;;19.87;11.70;;;2.00;99.90;;;;;;4923863;29;20039;-80
2021/12/21 11:38:39;;;;;;;16.73;11.20;;;2.10;99.90;;;;;;4924180;29;20298;-80
2021/12/21 11:41:06;;;;;;;23.30;12.73;;;2.10;99.90;;;;;;4945573;29;20047;-80
2021/12/21 11:43:54;;;;;;;18.40;11.60;;;2.20;99.90;;;;;;4902585;29;20047;-80
2021/12/21 11:46:30;;;;;;;24.30;13.30;;;2.20;99.90;;;;;;4922803;29;20538;-80
2021/12/21 11:49:11;;;;;;;25.87;15.30;;;2.20;99.90;;;;;;4921797;29;20282;-80
2021/12/21 11:51:36;;;;;;;26.20;17.40;;;2.30;99.90;;;;;;4952498;29;20802;-80
2021/12/21 11:54:15;;;;;;;24.20;16.67;;;2.30;99.90;;;;;;4922220;29;20043;-80
2021/12/21 11:56:41;;;;;;;26.87;17.67;;;2.40;99.90;;;;;;4935621;29;20491;-80
2021/12/21 11:59:06;;;;;;;25.20;16.60;;;2.40;99.90;;;;;;4919705;29;20127;-80
2021/12/21 12:01:32;;;;;;;22.07;14.50;;;2.40;99.90;;;;;;4923167;29;20049;-80
2021/12/21 12:04:08;;;;;;;23.60;13.67;;;2.50;99.90;;;;;;4923374;29;20057;-80
2021/12/21 12:06:50;;;;;;;20.30;13.10;;;2.50;99.90;;;;;;4923238;29;20047;-80
2021/12/21 12:09:27;;;;;;;17.80;12.40;;;2.60;99.90;;;;;;4953902;28;20043;-80
2021/12/21 12:12:06;;;;;;;23.30;13.83;;;2.60;99.90;;;;;;4928943;29;20035;-80
2021/12/21 12:14:33;;;;;;;16.53;11.67;;;2.60;99.90;;;;;;4933591;29;20055;-80
2021/12/21 12:17:05;;;;;;;24.53;13.30;;;2.60;99.90;;;;;;4940972;29;20086;-80
2021/12/21 12:19:32;;;;;;;;;;;2.70;99.90;;;;;;4923373;29;20142;-80
2021/12/21 12:22:09;;;;;;;19.30;12.50;;;2.70;99.90;;;;;;4923709;29;20390;-80
2021/12/21 12:24:44;;;;;;;21.87;13.33;;;2.70;99.90;;;;;;4939530;29;20043;-80
2021/12/21 12:27:20;;;;;;;19.77;12.60;;;2.80;99.90;;;;;;4952548;29;20051;-80
2021/12/21 12:29:47;;;;;;;21.10;13.03;;;2.80;99.90;;;;;;4921608;29;20511;-80
2021/12/21 12:32:14;;;;;;;26.73;15.33;;;2.80;99.90;;;;;;4915906;29;20455;-80
2021/12/21 12:34:42;;;;;;;27.33;15.80;;;2.90;99.90;;;;;;4922619;29;20078;-80
2021/12/21 12:37:23;;;;;;;31.10;16.53;;;2.90;99.90;;;;;;4929772;29;20043;-80
2021/12/21 12:39:55;;;;;;;37.97;19.48;;;2.90;99.90;;;;;;4935092;29;20495;-80
2021/12/21 12:42:32;;;;;;;29.85;15.45;;;2.90;99.90;;;;;;4925667;29;20094;-80
2021/12/21 12:45:16;;;;;;;20.20;13.60;;;3.00;99.90;;;;;;4919597;29;20402;-80
2021/12/21 12:47:47;;;;;;;18.43;11.27;;;2.90;99.90;;;;;;4919399;29;20081;-80
2021/12/21 12:50:21;;;;;;;22.23;12.60;;;3.00;99.90;;;;;;4937930;29;20168;-80
2021/12/21 12:53:07;;;;;;;21.47;12.80;;;3.00;99.90;;;;;;4919292;29;20391;-80
2021/12/21 12:55:54;;;;;;;24.27;14.17;;;3.00;99.90;;;;;;4932392;29;20227;-80
2021/12/21 12:58:26;;;;;;;18.37;11.67;;;3.00;99.90;;;;;;4944693;29;20454;-80
2021/12/21 13:01:00;;;;;;;19.42;12.90;;;3.00;99.90;;;;;;4948773;29;20078;-80
2021/12/21 13:03:40;;;;;;;19.67;13.70;;;3.10;99.90;;;;;;4944260;29;20050;-80
2021/12/21 13:06:14;;;;;;;18.97;12.47;;;3.10;99.90;;;;;;4929601;29;20040;-80
2021/12/21 13:08:42;;;;;;;21.43;13.70;;;3.00;99.90;;;;;;4933426;29;20031;-80
2021/12/21 13:11:09;;;;;;;21.27;13.73;;;3.10;99.90;;;;;;4938957;29;20048;-80
2021/12/21 13:13:36;;;;;;;23.47;14.90;;;3.00;99.90;;;;;;4896998;29;20966;-80
2021/12/21 13:16:10;;;;;;;24.67;15.60;;;3.10;99.90;;;;;;4941102;29;20056;-80
2021/12/21 13:18:44;;;;;;;24.37;15.67;;;3.10;99.90;;;;;;4919533;29;20131;-80
2021/12/21 13:21:23;;;;;;;24.63;15.93;;;3.10;99.90;;;;;;4940315;28;20048;-80
2021/12/21 13:23:51;;;;;;;23.57;14.27;;;3.10;99.90;;;;;;4921936;29;20130;-81
2021/12/21 13:26:30;;;;;;;22.47;14.93;;;3.10;99.90;;;;;;4927296;29;20122;-80
2021/12/21 13:28:56;;;;;;;24.33;14.73;;;3.10;99.90;;;;;;4931100;29;20051;-80
2021/12/21 13:31:23;;;;;;;19.77;14.13;;;3.10;99.90;;;;;;4902612;29;20044;-79
2021/12/21 13:33:51;;;;;;;23.23;15.17;;;3.10;99.90;;;;;;4898718;29;20373;-78
2021/12/21 13:36:18;;;;;;;21.90;12.87;;;3.10;99.90;;;;;;4951149;29;20083;-79
2021/12/21 13:38:44;;;;;;;20.17;12.47;;;3.10;99.90;;;;;;4949620;29;20128;-79
2021/12/21 13:41:11;;;;;;;20.93;12.80;;;3.10;99.90;;;;;;4919095;29;20075;-79
2021/12/21 13:43:39;;;;;;;17.23;11.80;;;3.10;99.90;;;;;;4935344;29;20044;-79
2021/12/21 13:46:08;;;;;;;21.53;12.17;;;3.10;99.90;;;;;;4940357;29;20447;-79
2021/12/21 13:48:35;;;;;;;16.67;11.33;;;3.10;99.90;;;;;;4921750;29;20036;-79
2021/12/21 13:51:14;;;;;;;24.63;13.43;;;3.00;99.90;;;;;;4921890;29;20044;-78
2021/12/21 13:53:50;;;;;;;26.00;15.60;;;3.00;99.90;;;;;;4909710;29;20040;-79
2021/12/21 13:56:22;;;;;;;29.00;16.03;;;3.00;99.90;;;;;;4935234;29;20090;-78
2021/12/21 13:58:49;;;;;;;32.40;21.35;;;3.00;99.90;;;;;;4923236;29;20055;-78
2021/12/21 14:01:22;;;;;;;27.03;17.97;;;2.90;99.90;;;;;;4919418;29;20059;-78
2021/12/21 14:04:00;;;;;;;25.10;14.90;;;2.90;99.90;;;;;;4925638;29;20058;-79